Time;durP1;ratioP1;P1;durP2;ratioP2;P2;SDS_P1;SDS_P2;PMS_P1;PMS_P2;Temp;Humidity;BMP_temperature;BMP_pressure;BME280_temperature;BME280_humidity;BME280_pressure;Samples;Min_cycle;Max_cycle;Signal;HPM_P1;HPM_P2
2021/12/22 00:02:11;;;;;;;18.40;6.90;;;-2.20;99.90;;;;;;5097440;28;20602;-88
2021/12/22 00:04:44;;;;;;;19.03;7.60;;;-2.20;99.90;;;;;;5098028;28;20180;-88
2021/12/22 00:07:10;;;;;;;15.87;7.87;;;-2.20;99.90;;;;;;5116241;28;20672;-86
2021/12/22 00:09:36;;;;;;;18.00;6.93;;;-2.20;99.90;;;;;;5098301;28;20425;-86
2021/12/22 00:12:02;;;;;;;12.77;7.23;;;-2.10;99.90;;;;;;5097782;28;20479;-88
2021/12/22 00:14:28;;;;;;;12.37;6.77;;;-2.20;99.90;;;;;;5097702;28;20277;-86
2021/12/22 00:16:53;;;;;;;16.43;6.77;;;-2.20;99.90;;;;;;5097632;28;20463;-86
2021/12/22 00:19:19;;;;;;;14.23;6.87;;;-2.20;99.90;;;;;;5097784;28;20181;-86
2021/12/22 00:21:45;;;;;;;3.70;2.50;;;-2.10;99.90;;;;;;5097673;28;20190;-86
2021/12/22 00:24:11;;;;;;;14.27;6.97;;;-2.20;99.90;;;;;;5097637;28;20535;-86
2021/12/22 00:26:37;;;;;;;10.37;6.17;;;-2.20;99.90;;;;;;5097455;28;20427;-85
2021/12/22 00:29:03;;;;;;;14.30;7.27;;;-2.10;99.90;;;;;;5097413;28;20208;-88
2021/12/22 00:31:29;;;;;;;12.93;5.27;;;-2.20;99.90;;;;;;5097473;28;20307;-87
2021/12/22 00:33:57;;;;;;;10.63;6.57;;;-2.10;99.90;;;;;;5115897;28;20453;-86
2021/12/22 00:36:26;;;;;;;16.37;6.70;;;-2.20;99.90;;;;;;5097522;28;20505;-87
2021/12/22 00:38:53;;;;;;;9.20;5.70;;;-2.20;99.90;;;;;;5097972;28;20413;-84
2021/12/22 00:41:19;;;;;;;15.33;6.70;;;-2.20;99.90;;;;;;5098020;28;20495;-87
2021/12/22 00:43:44;;;;;;;11.40;5.70;;;-2.20;99.90;;;;;;5097172;28;20413;-88
2021/12/22 00:46:12;;;;;;;11.37;6.67;;;-2.20;99.90;;;;;;5097659;28;20598;-87
2021/12/22 00:48:39;;;;;;;11.43;6.50;;;-2.20;99.90;;;;;;5097286;28;20202;-84
2021/12/22 00:51:04;;;;;;;17.73;7.17;;;-2.20;99.90;;;;;;5097139;28;20468;-85
2021/12/22 00:53:30;;;;;;;16.77;8.00;;;-2.30;99.90;;;;;;5097180;28;20413;-82
2021/12/22 00:55:56;;;;;;;10.00;6.57;;;-2.30;99.90;;;;;;5097402;28;20176;-84
2021/12/22 00:58:22;;;;;;;11.63;6.37;;;-2.30;99.90;;;;;;5097112;28;20212;-84
2021/12/22 01:00:49;;;;;;;12.37;5.33;;;-2.30;99.90;;;;;;5097126;28;21051;-87
2021/12/22 01:03:16;;;;;;;13.03;5.23;;;-2.30;99.90;;;;;;5097422;28;20247;-82
2021/12/22 01:05:42;;;;;;;13.20;5.87;;;-2.30;99.90;;;;;;5097059;28;20423;-85
2021/12/22 01:08:07;;;;;;;14.10;5.70;;;-2.20;99.90;;;;;;5096757;28;20448;-85
2021/12/22 01:10:34;;;;;;;9.67;5.97;;;-2.30;99.90;;;;;;5115621;28;20202;-85
2021/12/22 01:13:02;;;;;;;12.07;6.20;;;-2.40;99.90;;;;;;5096328;28;20187;-84
2021/12/22 01:15:29;;;;;;;10.53;5.73;;;-2.30;99.90;;;;;;5114924;28;20466;-85
2021/12/22 01:18:01;;;;;;;12.20;5.60;;;-2.20;99.90;;;;;;5096793;28;20521;-89
2021/12/22 01:20:35;;;;;;;15.73;5.90;;;-2.20;99.90;;;;;;5115189;28;20489;-87
2021/12/22 01:23:05;;;;;;;13.20;6.40;;;-2.20;99.90;;;;;;5101127;28;20777;-88
2021/12/22 01:25:37;;;;;;;11.63;5.70;;;-2.20;99.90;;;;;;5105516;28;20437;-88
2021/12/22 01:28:03;;;;;;;9.77;5.00;;;-2.20;99.90;;;;;;5101732;28;20854;-87
2021/12/22 01:30:31;;;;;;;9.43;4.97;;;-2.20;99.90;;;;;;5115195;28;20469;-86
2021/12/22 01:32:59;;;;;;;13.83;5.30;;;-2.20;99.90;;;;;;5097172;28;20421;-88
2021/12/22 01:35:28;;;;;;;10.97;5.00;;;-2.20;99.90;;;;;;5096816;28;20425;-88
2021/12/22 01:37:54;;;;;;;11.67;5.90;;;-2.20;99.90;;;;;;5097086;28;20451;-88
2021/12/22 01:40:21;;;;;;;14.13;6.37;;;-2.20;99.90;;;;;;5097432;28;20916;-88
2021/12/22 01:42:48;;;;;;;11.63;6.33;;;-2.20;99.90;;;;;;5097337;28;20424;-87
2021/12/22 01:45:36;;;;;;;12.03;6.63;;;-2.20;99.90;;;;;;5097389;28;20780;-87
2021/12/22 01:50:50;;;;;;;8.10;4.80;;;-2.20;99.90;;;;;;5114813;28;20531;-87
2021/12/22 01:53:21;;;;;;;11.50;5.57;;;-2.20;99.90;;;;;;5096089;28;20450;-86
2021/12/22 01:56:00;;;;;;;12.47;5.53;;;-2.20;99.90;;;;;;5096524;28;20936;-84
2021/12/22 01:58:39;;;;;;;14.90;6.33;;;-2.20;99.90;;;;;;5096305;28;20485;-83
2021/12/22 02:01:06;;;;;;;7.90;4.30;;;-2.20;99.90;;;;;;5096538;28;20463;-85
2021/12/22 02:03:32;;;;;;;9.67;4.87;;;-2.30;99.90;;;;;;5096816;28;20914;-88
2021/12/22 02:05:58;;;;;;;11.20;5.73;;;-2.30;99.90;;;;;;5106463;28;20423;-86
2021/12/22 02:08:24;;;;;;;11.80;6.10;;;-2.20;99.90;;;;;;5106727;28;20474;-88
2021/12/22 02:10:49;;;;;;;10.67;6.20;;;-2.30;99.90;;;;;;5105182;28;20211;-86
2021/12/22 02:13:21;;;;;;;9.03;4.97;;;-2.40;99.90;;;;;;5106191;28;20538;-85
2021/12/22 02:15:48;;;;;;;9.97;5.40;;;-2.30;99.90;;;;;;5106754;28;20168;-88
2021/12/22 02:18:18;;;;;;;12.07;5.93;;;-2.40;99.90;;;;;;5106679;28;20526;-86
2021/12/22 02:20:45;;;;;;;11.47;6.07;;;-2.40;99.90;;;;;;5107066;28;20893;-85
2021/12/22 02:23:10;;;;;;;8.53;5.17;;;-2.50;99.90;;;;;;5106283;28;20515;-84
2021/12/22 02:25:44;;;;;;;9.97;6.27;;;-2.50;99.90;;;;;;5108746;28;20992;-83
2021/12/22 02:28:17;;;;;;;9.40;5.63;;;-2.40;99.90;;;;;;5110862;28;20294;-84
2021/12/22 02:30:43;;;;;;;13.60;6.23;;;-1.70;99.90;;;;;;5128506;28;20455;-85
2021/12/22 02:33:54;;;;;;;10.97;5.10;;;-2.40;99.90;;;;;;5108443;28;20510;-86
2021/12/22 02:38:35;;;;;;;12.93;6.27;;;-2.40;99.90;;;;;;5125835;28;20442;-88
2021/12/22 02:41:02;;;;;;;13.30;6.07;;;-2.40;99.90;;;;;;5101681;28;20534;-87
2021/12/22 02:43:32;;;;;;;14.70;6.40;;;-2.40;99.90;;;;;;5119462;28;20415;-87
2021/12/22 02:45:59;;;;;;;11.00;5.50;;;-2.40;99.90;;;;;;5100962;28;20408;-88
2021/12/22 02:48:29;;;;;;;14.63;6.37;;;-2.40;99.90;;;;;;5101199;28;20450;-88
2021/12/22 02:50:57;;;;;;;13.90;6.43;;;-2.60;99.90;;;;;;5101414;28;20854;-88
2021/12/22 02:53:28;;;;;;;8.73;5.93;;;-2.50;99.90;;;;;;5101520;28;20413;-87
2021/12/22 02:56:05;;;;;;;16.17;6.63;;;-2.50;99.90;;;;;;5101345;28;20431;-86
2021/12/22 02:58:54;;;;;;;10.90;5.10;;;-2.40;99.90;;;;;;5100740;28;20463;-88
2021/12/22 03:02:03;;;;;;;15.10;7.40;;;-2.50;99.90;;;;;;5100948;28;20417;-86
2021/12/22 03:04:20;;;;;;;12.97;6.80;;;-2.50;99.90;;;;;;5119096;28;20431;-88
2021/12/22 03:09:19;;;;;;;16.70;7.07;;;-2.60;99.90;;;;;;5119420;28;20423;-87
2021/12/22 03:11:45;;;;;;;14.13;7.30;;;-2.60;99.90;;;;;;5100419;28;20569;-86
2021/12/22 03:14:12;;;;;;;11.40;6.23;;;-2.70;99.90;;;;;;5100823;28;20418;-87
2021/12/22 03:16:38;;;;;;;20.83;7.53;;;-2.70;99.90;;;;;;5100696;28;20421;-87
2021/12/22 03:19:04;;;;;;;11.57;6.33;;;-2.80;99.90;;;;;;5101624;28;20420;-87
2021/12/22 03:21:30;;;;;;;10.60;6.10;;;-2.90;99.90;;;;;;5099565;28;20193;-85
2021/12/22 03:23:56;;;;;;;10.80;6.70;;;-2.90;99.90;;;;;;5099562;28;20187;-88
2021/12/22 03:26:23;;;;;;;18.47;7.07;;;-2.90;99.90;;;;;;5099461;28;20229;-87
2021/12/22 03:28:49;;;;;;;14.13;6.60;;;-2.90;99.90;;;;;;5099438;28;20472;-87
2021/12/22 03:31:15;;;;;;;13.83;7.33;;;-2.90;99.90;;;;;;5099637;28;20501;-88
2021/12/22 03:33:42;;;;;;;13.00;6.23;;;-2.90;99.90;;;;;;5099661;28;20223;-87
2021/12/22 03:36:08;;;;;;;14.93;6.47;;;-2.90;99.90;;;;;;5098537;28;20432;-87
2021/12/22 03:38:35;;;;;;;12.70;6.53;;;-2.90;99.90;;;;;;5099326;28;20474;-87
2021/12/22 03:41:03;;;;;;;13.70;6.37;;;-3.00;99.90;;;;;;5118450;28;20425;-87
2021/12/22 03:43:28;;;;;;;10.40;6.93;;;-2.90;99.90;;;;;;5099841;28;20507;-88
2021/12/22 03:45:54;;;;;;;11.50;5.70;;;-3.00;99.90;;;;;;5099643;28;20508;-88
2021/12/22 03:48:21;;;;;;;11.07;6.63;;;-3.00;99.90;;;;;;5099600;28;20202;-86
2021/12/22 03:50:47;;;;;;;15.73;6.67;;;-3.00;99.90;;;;;;5098973;28;20239;-84
2021/12/22 03:53:12;;;;;;;13.67;6.03;;;-2.90;99.90;;;;;;5099489;28;20466;-87
2021/12/22 03:55:38;;;;;;;11.57;5.87;;;-3.00;99.90;;;;;;5099938;28;20184;-88
2021/12/22 03:58:04;;;;;;;12.47;6.57;;;-3.00;99.90;;;;;;5100068;28;20211;-90
2021/12/22 04:00:30;;;;;;;11.73;6.40;;;-3.00;99.90;;;;;;5099908;28;20270;-87
2021/12/22 04:02:57;;;;;;;11.30;6.53;;;-2.90;99.90;;;;;;5099936;28;20426;-87
2021/12/22 04:05:23;;;;;;;13.67;6.07;;;-2.90;99.90;;;;;;5100233;28;20992;-87
2021/12/22 04:07:49;;;;;;;12.57;6.30;;;-2.80;99.90;;;;;;5099332;28;20444;-88
2021/12/22 04:10:22;;;;;;;12.13;7.33;;;-2.90;99.90;;;;;;5099438;28;20471;-87
2021/12/22 04:12:56;;;;;;;16.77;6.87;;;-2.90;99.90;;;;;;5099992;28;20172;-87
2021/12/22 04:15:24;;;;;;;12.27;6.57;;;-2.90;99.90;;;;;;5117821;28;20408;-88
2021/12/22 04:17:50;;;;;;;11.10;6.57;;;-2.90;99.90;;;;;;5099398;28;20437;-86
2021/12/22 04:20:17;;;;;;;12.27;6.60;;;-3.10;99.90;;;;;;5099964;28;20809;-88
2021/12/22 04:22:43;;;;;;;11.23;6.20;;;-2.90;99.90;;;;;;5100155;28;20417;-87
2021/12/22 04:25:09;;;;;;;14.80;6.93;;;-2.80;99.90;;;;;;5100083;28;20508;-85
2021/12/22 04:27:36;;;;;;;15.33;6.27;;;-2.80;99.90;;;;;;5099890;28;20445;-88
2021/12/22 04:30:06;;;;;;;13.07;6.17;;;-1.10;99.90;;;;;;5099745;28;20425;-87
2021/12/22 04:32:32;;;;;;;11.30;6.80;;;-2.80;99.90;;;;;;5099288;28;20417;-86
2021/12/22 04:34:57;;;;;;;13.87;7.43;;;-2.90;99.90;;;;;;5099585;28;21099;-87
2021/12/22 04:37:23;;;;;;;10.00;6.40;;;-2.90;99.90;;;;;;5117705;28;20566;-87
2021/12/22 04:39:49;;;;;;;14.77;6.93;;;-2.90;99.90;;;;;;5100073;28;20560;-87
2021/12/22 04:42:16;;;;;;;14.50;7.20;;;-3.00;99.90;;;;;;5099413;28;20182;-89
2021/12/22 04:44:42;;;;;;;14.13;6.63;;;-3.00;99.90;;;;;;5099315;28;20182;-87
2021/12/22 04:47:07;;;;;;;11.50;6.67;;;-3.00;99.90;;;;;;5099605;28;20441;-89
2021/12/22 04:49:33;;;;;;;13.33;7.17;;;-3.00;99.90;;;;;;5099371;28;20704;-87
2021/12/22 04:52:00;;;;;;;13.47;6.43;;;-3.10;99.90;;;;;;5099291;28;20678;-87
2021/12/22 04:56:54;;;;;;;9.77;6.37;;;-3.10;99.90;;;;;;5117142;28;20447;-87
2021/12/22 04:59:19;;;;;;;9.60;6.37;;;-2.60;99.90;;;;;;5099510;28;20167;-87
2021/12/22 05:01:45;;;;;;;14.30;6.67;;;-3.20;99.90;;;;;;5098871;28;20425;-87
2021/12/22 05:04:11;;;;;;;12.57;7.03;;;-3.20;99.90;;;;;;5099259;28;20193;-89
2021/12/22 05:06:37;;;;;;;10.90;5.77;;;-3.10;99.90;;;;;;5099730;28;20186;-88
2021/12/22 05:09:04;;;;;;;10.33;5.37;;;-3.10;99.90;;;;;;5099676;28;20211;-86
2021/12/22 05:11:30;;;;;;;7.50;5.13;;;-3.10;99.90;;;;;;5100120;28;20298;-89
2021/12/22 05:13:56;;;;;;;14.57;6.67;;;-3.10;99.90;;;;;;5097751;28;20409;-87
2021/12/22 05:16:21;;;;;;;14.33;6.20;;;-3.00;99.90;;;;;;5097440;28;20458;-85
2021/12/22 05:21:14;;;;;;;14.90;6.37;;;-3.00;99.90;;;;;;5115775;28;20185;-87
2021/12/22 05:23:39;;;;;;;11.83;5.63;;;-3.00;99.90;;;;;;5096623;28;20429;-89
2021/12/22 05:26:05;;;;;;;11.03;6.17;;;-2.90;99.90;;;;;;5096622;28;20193;-88
2021/12/22 05:28:31;;;;;;;9.70;5.93;;;-2.90;99.90;;;;;;5096615;28;20263;-88
2021/12/22 05:30:56;;;;;;;8.53;5.07;;;-2.80;99.90;;;;;;5096629;28;20653;-87
2021/12/22 05:33:22;;;;;;;11.97;6.77;;;-2.80;99.90;;;;;;5096540;28;20184;-88
2021/12/22 05:35:48;;;;;;;7.30;2.73;;;-2.80;99.90;;;;;;5096544;28;20179;-87
2021/12/22 05:38:13;;;;;;;13.33;6.47;;;-2.90;99.90;;;;;;5096325;28;20735;-88
2021/12/22 05:40:39;;;;;;;13.50;6.30;;;-2.70;99.90;;;;;;5097430;28;20639;-86
2021/12/22 05:43:05;;;;;;;10.30;5.80;;;-2.70;99.90;;;;;;5097079;28;20229;-88
2021/12/22 05:45:30;;;;;;;7.03;4.63;;;-2.80;99.90;;;;;;5097987;28;20391;-87
2021/12/22 05:47:56;;;;;;;5.43;3.57;;;-2.70;99.90;;;;;;5098440;28;20196;-87
2021/12/22 05:50:23;;;;;;;9.83;5.67;;;-2.70;99.90;;;;;;5098298;28;20653;-87
2021/12/22 05:52:49;;;;;;;8.63;4.80;;;-3.00;99.90;;;;;;5098035;28;20186;-87
2021/12/22 05:55:14;;;;;;;10.90;5.33;;;-2.70;99.90;;;;;;5117206;28;20408;-87
2021/12/22 05:57:40;;;;;;;5.23;3.70;;;-2.70;99.90;;;;;;5097972;28;20547;-86
2021/12/22 06:00:07;;;;;;;9.57;4.37;;;-2.70;99.90;;;;;;5115871;28;20219;-87
2021/12/22 06:02:33;;;;;;;11.50;6.83;;;-2.70;99.90;;;;;;5098001;28;20177;-88
2021/12/22 06:04:58;;;;;;;12.93;5.40;;;-2.70;99.90;;;;;;5116342;28;20411;-86
2021/12/22 06:07:24;;;;;;;8.57;4.87;;;-2.80;99.90;;;;;;5099427;28;20209;-87
2021/12/22 06:09:49;;;;;;;13.17;6.53;;;-2.70;99.90;;;;;;5099606;28;20649;-87
2021/12/22 06:12:15;;;;;;;9.67;4.37;;;-2.70;99.90;;;;;;5099426;28;20205;-87
2021/12/22 06:14:40;;;;;;;17.07;6.73;;;-2.70;99.90;;;;;;5099049;28;20235;-87
2021/12/22 06:17:06;;;;;;;15.63;7.00;;;-2.70;99.90;;;;;;5100450;28;20270;-88
2021/12/22 06:19:32;;;;;;;12.47;6.13;;;-2.70;99.90;;;;;;5100890;28;20631;-87
2021/12/22 06:21:57;;;;;;;10.40;6.23;;;-2.70;99.90;;;;;;5101362;28;20599;-88
2021/12/22 06:24:23;;;;;;;12.20;7.00;;;-2.70;99.90;;;;;;5119690;28;20189;-89
2021/12/22 06:26:48;;;;;;;11.87;6.43;;;-2.70;99.90;;;;;;5101793;28;20225;-88
2021/12/22 06:29:14;;;;;;;11.83;5.40;;;-2.60;99.90;;;;;;5100724;28;20183;-84
2021/12/22 06:31:40;;;;;;;10.93;6.63;;;-2.80;99.90;;;;;;5101108;28;20290;-85
2021/12/22 06:34:05;;;;;;;15.27;7.57;;;-2.70;99.90;;;;;;5100329;28;20547;-86
2021/12/22 06:36:31;;;;;;;17.87;7.57;;;-2.70;99.90;;;;;;5118990;28;20163;-85
2021/12/22 06:38:57;;;;;;;15.10;7.33;;;-2.70;99.90;;;;;;5100831;28;20179;-88
2021/12/22 06:41:23;;;;;;;18.40;7.63;;;-2.80;99.90;;;;;;5100867;28;20435;-85
2021/12/22 06:43:48;;;;;;;18.80;7.60;;;-2.70;99.90;;;;;;5100859;28;20184;-88
2021/12/22 06:46:14;;;;;;;14.97;7.87;;;-2.70;99.90;;;;;;5100496;28;20236;-88
2021/12/22 06:48:39;;;;;;;8.37;4.87;;;-2.70;99.90;;;;;;5100862;28;20286;-89
2021/12/22 06:51:06;;;;;;;11.27;5.63;;;-2.70;99.90;;;;;;5102062;28;20615;-86
2021/12/22 06:53:34;;;;;;;14.17;6.30;;;-2.70;99.90;;;;;;5101392;28;20262;-87
2021/12/22 06:56:03;;;;;;;5.00;2.73;;;-2.60;99.90;;;;;;5102161;28;20423;-86
2021/12/22 06:58:29;;;;;;;14.63;7.63;;;-2.60;99.90;;;;;;5101310;28;20469;-86
2021/12/22 07:00:54;;;;;;;10.97;5.97;;;-2.60;99.90;;;;;;5103200;28;20421;-85
2021/12/22 07:03:20;;;;;;;13.93;7.13;;;-2.60;99.90;;;;;;5103264;28;20198;-88
2021/12/22 07:05:45;;;;;;;17.30;8.33;;;-2.60;99.90;;;;;;5102519;28;20176;-86
2021/12/22 07:08:11;;;;;;;12.20;5.33;;;-2.60;99.90;;;;;;5100554;28;20213;-88
2021/12/22 07:10:37;;;;;;;13.97;7.10;;;-2.70;99.90;;;;;;5100369;28;20233;-90
2021/12/22 07:13:03;;;;;;;16.87;7.73;;;-2.70;99.90;;;;;;5104221;28;20182;-89
2021/12/22 07:15:29;;;;;;;13.30;7.37;;;-2.70;99.90;;;;;;5123051;28;20178;-88
2021/12/22 07:17:55;;;;;;;15.93;6.90;;;-2.80;99.90;;;;;;5104564;28;20433;-90
2021/12/22 07:20:21;;;;;;;11.13;6.07;;;-2.60;99.90;;;;;;5103789;28;20177;-86
2021/12/22 07:22:48;;;;;;;17.60;7.50;;;-2.70;99.90;;;;;;5105451;28;20807;-89
2021/12/22 07:25:17;;;;;;;14.70;7.30;;;-2.60;99.90;;;;;;5106349;28;21019;-88
2021/12/22 07:27:42;;;;;;;13.27;6.83;;;-2.60;99.90;;;;;;5105880;28;20443;-89
2021/12/22 07:30:08;;;;;;;12.50;6.47;;;-2.60;99.90;;;;;;5106328;28;20512;-87
2021/12/22 07:32:34;;;;;;;5.07;3.20;;;-2.60;99.90;;;;;;5107290;28;20282;-89
2021/12/22 07:35:09;;;;;;;14.83;6.37;;;-2.00;99.90;;;;;;5106697;28;20445;-90
2021/12/22 07:37:40;;;;;;;12.07;6.40;;;-2.60;99.90;;;;;;5104179;28;20192;-86
2021/12/22 07:40:09;;;;;;;10.40;5.00;;;-2.60;99.90;;;;;;5103387;28;20412;-85
2021/12/22 07:42:35;;;;;;;9.70;6.10;;;-2.60;99.90;;;;;;5103710;28;20417;-83
2021/12/22 07:45:01;;;;;;;12.97;7.07;;;-2.60;99.90;;;;;;5122347;28;20411;-86
2021/12/22 07:47:27;;;;;;;9.30;4.97;;;-2.60;99.90;;;;;;5104048;28;20441;-84
2021/12/22 07:49:52;;;;;;;10.90;5.80;;;-2.60;99.90;;;;;;5122390;28;20410;-87
2021/12/22 07:52:18;;;;;;;15.30;8.23;;;-2.60;99.90;;;;;;5122721;28;20207;-83
2021/12/22 07:54:44;;;;;;;12.07;6.83;;;-2.60;99.90;;;;;;5104383;28;20179;-85
2021/12/22 07:57:09;;;;;;;11.37;7.07;;;-2.60;99.90;;;;;;5103384;28;20702;-86
2021/12/22 07:59:35;;;;;;;12.23;7.17;;;-2.60;99.90;;;;;;5103830;28;20436;-86
2021/12/22 08:02:00;;;;;;;16.10;8.60;;;-2.60;99.90;;;;;;5104505;28;20190;-82
2021/12/22 08:04:26;;;;;;;9.03;5.90;;;-2.70;99.90;;;;;;5104343;28;20175;-84
2021/12/22 08:06:52;;;;;;;7.93;4.37;;;-2.50;99.90;;;;;;5122037;28;20195;-84
2021/12/22 08:09:17;;;;;;;8.43;4.50;;;-2.60;99.90;;;;;;5103058;28;20590;-85
2021/12/22 08:11:43;;;;;;;15.40;7.17;;;-2.60;99.90;;;;;;5103640;28;20211;-86
2021/12/22 08:14:09;;;;;;;13.47;6.87;;;-1.90;99.90;;;;;;5104750;28;20175;-87
2021/12/22 08:16:34;;;;;;;13.07;7.47;;;-2.50;99.90;;;;;;5103590;28;20414;-86
2021/12/22 08:19:00;;;;;;;14.43;8.57;;;-2.50;99.90;;;;;;5103949;28;20171;-87
2021/12/22 08:21:26;;;;;;;10.33;5.30;;;-2.50;99.90;;;;;;5103462;28;20210;-88
2021/12/22 08:23:51;;;;;;;13.73;7.13;;;-2.50;99.90;;;;;;5122736;28;20170;-89
2021/12/22 08:26:17;;;;;;;18.03;7.60;;;-1.90;99.90;;;;;;5103593;28;20182;-88
2021/12/22 08:28:46;;;;;;;11.03;6.80;;;-2.50;99.90;;;;;;5103863;28;20222;-87
2021/12/22 08:31:12;;;;;;;13.33;7.67;;;-2.40;99.90;;;;;;5101272;28;20678;-88
2021/12/22 08:33:44;;;;;;;19.30;8.80;;;-2.40;99.90;;;;;;5098858;28;20431;-88
2021/12/22 08:38:54;;;;;;;14.73;7.40;;;-2.30;99.90;;;;;;5117409;28;20387;-86
2021/12/22 08:41:21;;;;;;;19.10;8.60;;;-2.30;99.90;;;;;;5117597;28;20833;-87
2021/12/22 08:43:46;;;;;;;16.13;8.53;;;-2.20;99.90;;;;;;5099009;28;20435;-89
2021/12/22 08:46:12;;;;;;;17.87;8.43;;;-2.20;99.90;;;;;;5098717;28;20505;-85
2021/12/22 08:48:38;;;;;;;18.00;8.00;;;-2.20;99.90;;;;;;5099537;28;20210;-88
2021/12/22 08:51:03;;;;;;;18.30;8.27;;;-2.20;99.90;;;;;;5099795;28;20208;-89
2021/12/22 08:53:29;;;;;;;14.30;7.57;;;-2.10;99.90;;;;;;5100867;28;20183;-87
2021/12/22 08:55:54;;;;;;;17.23;7.47;;;-1.60;99.90;;;;;;5120230;28;20226;-88
2021/12/22 08:58:20;;;;;;;19.93;8.87;;;-2.10;99.90;;;;;;5103012;28;20218;-88
2021/12/22 09:00:46;;;;;;;11.17;7.17;;;-1.20;99.90;;;;;;5101688;28;20235;-88
2021/12/22 09:03:11;;;;;;;16.03;8.23;;;-2.00;99.90;;;;;;5101947;28;20178;-87
2021/12/22 09:05:37;;;;;;;4.83;2.93;;;-2.10;99.90;;;;;;5102837;28;20230;-88
2021/12/22 09:08:03;;;;;;;13.23;8.30;;;-2.00;99.90;;;;;;5103287;28;20201;-89
2021/12/22 09:10:28;;;;;;;16.50;9.87;;;-1.90;99.90;;;;;;5103099;28;20213;-90
2021/12/22 09:12:54;;;;;;;16.67;9.03;;;-1.90;99.90;;;;;;5097510;28;20174;-87
2021/12/22 09:15:20;;;;;;;15.90;8.27;;;-1.90;99.90;;;;;;5097099;28;20203;-87
2021/12/22 09:17:46;;;;;;;17.37;9.83;;;-1.80;99.90;;;;;;5097098;28;20521;-88
2021/12/22 09:20:12;;;;;;;14.00;8.03;;;-1.80;99.90;;;;;;5096915;28;20529;-87
2021/12/22 09:22:38;;;;;;;12.00;6.20;;;-1.80;99.90;;;;;;5115120;28;20180;-85
2021/12/22 09:25:05;;;;;;;10.77;6.30;;;-1.70;99.90;;;;;;5096821;28;20417;-87
2021/12/22 09:27:30;;;;;;;15.90;9.17;;;-1.60;99.90;;;;;;5096886;28;20302;-87
2021/12/22 09:29:56;;;;;;;15.20;8.77;;;-1.60;99.90;;;;;;5096931;28;20951;-88
2021/12/22 09:32:22;;;;;;;18.87;9.33;;;-1.50;99.90;;;;;;5096549;28;20581;-87
2021/12/22 09:34:51;;;;;;;17.07;8.17;;;-1.50;99.90;;;;;;5095778;28;20188;-89
2021/12/22 09:37:17;;;;;;;14.63;8.83;;;-1.40;99.90;;;;;;5096863;28;20200;-87
2021/12/22 09:39:43;;;;;;;12.40;7.50;;;-1.30;99.90;;;;;;5097868;28;20421;-88
2021/12/22 09:42:10;;;;;;;12.30;6.70;;;-1.20;99.90;;;;;;5096394;28;20414;-86
2021/12/22 09:44:46;;;;;;;13.77;8.50;;;-1.20;99.90;;;;;;5096912;28;20213;-86
2021/12/22 09:47:16;;;;;;;8.80;5.83;;;-1.20;99.90;;;;;;5096916;28;20799;-88
2021/12/22 09:52:18;;;;;;;12.03;7.00;;;-1.00;99.90;;;;;;5115321;28;20475;-89
2021/12/22 09:54:48;;;;;;;15.43;8.53;;;-1.00;99.90;;;;;;5098289;28;20185;-88
2021/12/22 09:57:17;;;;;;;15.57;9.13;;;-0.90;99.90;;;;;;5096283;28;20469;-86
2021/12/22 09:59:45;;;;;;;11.67;6.27;;;-0.90;99.90;;;;;;5096566;28;20791;-88
2021/12/22 10:02:11;;;;;;;9.50;5.63;;;-0.90;99.90;;;;;;5096488;28;20498;-85
2021/12/22 10:04:37;;;;;;;18.67;9.90;;;-0.80;99.90;;;;;;5114956;28;20412;-86
2021/12/22 10:07:02;;;;;;;16.27;9.43;;;-0.80;99.90;;;;;;5096379;28;20528;-89
2021/12/22 10:09:30;;;;;;;14.37;8.57;;;-0.70;99.90;;;;;;5096489;28;20231;-87
2021/12/22 10:11:56;;;;;;;10.17;5.83;;;-0.70;99.90;;;;;;5096305;28;20233;-88
2021/12/22 10:14:26;;;;;;;14.60;8.93;;;-0.60;99.90;;;;;;5096284;28;20458;-88
2021/12/22 10:16:54;;;;;;;16.10;8.20;;;-0.60;99.90;;;;;;5096142;28;20244;-88
2021/12/22 10:19:24;;;;;;;13.40;7.17;;;-0.50;99.90;;;;;;5114692;28;20435;-88
2021/12/22 10:22:01;;;;;;;16.13;8.00;;;-0.50;99.90;;;;;;5096401;28;20423;-89
2021/12/22 10:24:39;;;;;;;18.43;8.90;;;-0.40;99.90;;;;;;5097644;28;20458;-87
2021/12/22 10:27:11;;;;;;;14.63;9.17;;;-0.30;99.90;;;;;;5100086;28;20811;-85
2021/12/22 10:29:37;;;;;;;14.30;7.63;;;-0.30;99.90;;;;;;5104208;28;20827;-88
2021/12/22 10:32:08;;;;;;;20.50;10.50;;;-0.30;99.90;;;;;;5104861;28;20464;-87
2021/12/22 10:34:34;;;;;;;13.47;8.57;;;0.10;99.90;;;;;;5123182;28;20174;-87
2021/12/22 10:37:00;;;;;;;13.53;6.60;;;-0.10;99.90;;;;;;5105474;28;20485;-88
2021/12/22 10:39:36;;;;;;;19.83;9.70;;;-0.10;99.90;;;;;;5105455;28;20179;-89
2021/12/22 10:42:10;;;;;;;14.20;8.53;;;0.00;99.90;;;;;;5105273;28;20173;-89
2021/12/22 10:44:40;;;;;;;15.23;9.30;;;0.00;99.90;;;;;;5104519;28;20408;-87
2021/12/22 10:49:14;;;;;;;22.13;10.77;;;0.10;99.90;;;;;;5107794;28;20439;-89
2021/12/22 10:50:24;;;;;;;15.70;9.87;;;1.00;99.90;;;;;;5126710;28;20426;-88
2021/12/22 10:52:50;;;;;;;16.93;9.50;;;1.20;99.90;;;;;;5110730;28;20447;-87
2021/12/22 10:55:16;;;;;;;17.27;10.07;;;0.00;99.90;;;;;;5107869;28;20415;-88
2021/12/22 10:57:45;;;;;;;20.03;10.63;;;0.10;99.90;;;;;;5107862;28;20452;-88
2021/12/22 11:00:19;;;;;;;19.40;10.70;;;0.20;99.90;;;;;;5107533;28;20223;-88
2021/12/22 11:03:01;;;;;;;18.97;10.07;;;0.20;99.90;;;;;;5107229;28;20412;-88
2021/12/22 11:05:30;;;;;;;21.43;10.33;;;0.20;99.90;;;;;;5107698;28;20412;-89
2021/12/22 11:07:57;;;;;;;18.87;11.13;;;1.70;99.90;;;;;;5108203;28;20439;-87
2021/12/22 11:10:28;;;;;;;17.40;11.13;;;0.30;99.90;;;;;;5106877;28;20505;-87
2021/12/22 11:13:06;;;;;;;16.80;10.13;;;0.40;99.90;;;;;;5107099;28;20418;-86
2021/12/22 11:15:41;;;;;;;18.20;10.07;;;1.50;99.90;;;;;;5107463;28;20536;-85
2021/12/22 11:18:26;;;;;;;19.27;10.97;;;0.40;99.90;;;;;;5127640;28;20953;-86
2021/12/22 11:21:12;;;;;;;19.40;9.53;;;0.60;99.90;;;;;;5109405;28;20915;-87
2021/12/22 11:23:38;;;;;;;18.57;10.63;;;0.70;99.90;;;;;;5104574;28;20415;-85
2021/12/22 11:26:04;;;;;;;21.37;11.70;;;0.70;99.90;;;;;;5101973;28;20561;-86
2021/12/22 11:28:30;;;;;;;18.00;11.67;;;1.70;99.90;;;;;;5101856;28;21088;-86
2021/12/22 11:30:57;;;;;;;18.30;10.77;;;3.40;99.90;;;;;;5101874;28;20462;-86
2021/12/22 11:33:24;;;;;;;18.97;10.77;;;0.80;99.90;;;;;;5102451;28;20424;-87
2021/12/22 11:35:50;;;;;;;21.50;11.90;;;0.90;99.90;;;;;;5101651;28;20469;-86
2021/12/22 11:38:17;;;;;;;16.13;10.43;;;0.80;99.90;;;;;;5101431;28;20432;-86
2021/12/22 11:40:51;;;;;;;18.97;11.77;;;3.50;99.90;;;;;;5101729;28;20247;-86
2021/12/22 11:43:17;;;;;;;19.23;12.37;;;1.00;99.90;;;;;;5101504;28;20408;-86
2021/12/22 11:45:45;;;;;;;21.47;12.03;;;1.20;99.90;;;;;;5100860;28;20416;-88
2021/12/22 11:48:11;;;;;;;14.03;9.03;;;1.10;99.90;;;;;;5103011;28;20199;-88
2021/12/22 11:50:36;;;;;;;20.83;12.33;;;1.20;99.90;;;;;;5105166;28;20464;-88
2021/12/22 11:53:08;;;;;;;20.80;11.10;;;1.20;99.90;;;;;;5123323;28;20538;-88
2021/12/22 11:55:47;;;;;;;17.17;10.17;;;1.20;99.90;;;;;;5107294;28;20587;-89
2021/12/22 11:58:22;;;;;;;14.27;9.43;;;1.30;99.90;;;;;;5105263;28;20469;-89
2021/12/22 12:00:53;;;;;;;19.77;10.90;;;1.40;99.90;;;;;;5105778;28;20420;-88
2021/12/22 12:03:31;;;;;;;20.70;11.13;;;1.50;99.90;;;;;;5107309;28;20405;-87
2021/12/22 12:06:21;;;;;;;18.17;11.50;;;1.50;99.90;;;;;;5123208;28;20393;-88
2021/12/22 12:08:50;;;;;;;18.00;11.17;;;1.60;99.90;;;;;;5101456;28;20532;-88
2021/12/22 12:11:38;;;;;;;23.80;12.33;;;1.60;99.90;;;;;;5098643;28;20468;-86
2021/12/22 12:14:09;;;;;;;18.97;11.80;;;1.60;99.90;;;;;;5102945;28;20925;-88
2021/12/22 12:22:35;;;;;;;17.03;11.23;;;1.90;99.90;;;;;;5128901;28;20732;-86
2021/12/22 12:25:05;;;;;;;18.13;9.63;;;2.00;99.90;;;;;;5133205;28;20400;-87
2021/12/22 12:27:36;;;;;;;16.03;10.67;;;1.90;99.90;;;;;;5114309;28;20852;-84
2021/12/22 12:30:08;;;;;;;18.57;10.97;;;2.10;99.90;;;;;;5114102;28;20421;-85
2021/12/22 12:32:39;;;;;;;17.23;9.90;;;2.10;99.90;;;;;;5114773;28;20161;-88
2021/12/22 12:35:31;;;;;;;16.57;10.10;;;2.10;99.90;;;;;;5114615;28;20201;-84
2021/12/22 12:38:17;;;;;;;17.47;11.17;;;2.20;99.90;;;;;;5115089;28;20192;-84
2021/12/22 12:40:55;;;;;;;14.33;9.37;;;2.20;99.90;;;;;;5113709;28;20237;-86
2021/12/22 12:46:24;;;;;;;14.20;10.23;;;2.30;99.90;;;;;;5132422;28;20213;-86
2021/12/22 12:49:04;;;;;;;17.67;9.77;;;2.30;99.90;;;;;;5115107;28;20230;-87
2021/12/22 12:51:33;;;;;;;18.50;11.70;;;2.40;99.90;;;;;;5108240;28;20569;-86
2021/12/22 12:54:07;;;;;;;15.67;10.50;;;2.40;99.90;;;;;;5105859;28;20181;-88
2021/12/22 12:56:43;;;;;;;14.97;10.50;;;2.40;99.90;;;;;;5104764;28;20264;-87
2021/12/22 12:59:27;;;;;;;17.00;10.57;;;2.40;99.90;;;;;;5104336;28;20178;-90
2021/12/22 13:01:52;;;;;;;16.30;11.40;;;2.40;99.90;;;;;;5105635;28;20188;-87
2021/12/22 13:04:36;;;;;;;16.17;10.20;;;2.30;99.90;;;;;;5109887;28;20192;-86
2021/12/22 13:07:12;;;;;;;17.27;10.93;;;2.30;99.90;;;;;;5110408;28;20205;-88
2021/12/22 13:09:50;;;;;;;21.93;11.53;;;2.30;99.90;;;;;;5108580;28;20175;-89
2021/12/22 13:17:55;;;;;;;17.37;11.50;;;3.30;99.90;;;;;;5127149;28;20291;-87